sensor_id;sensor_type;location;lat;lon;timestamp;pressure;altitude;pressure_sealevel;temperature;humidity
81299;BME280;70766;53.170;18.160;2024-02-26T00:01:12;100202.70;;;1.18;100.00
81299;BME280;70766;53.170;18.160;2024-02-26T00:03:55;100206.66;;;1.15;100.00
81299;BME280;70766;53.170;18.160;2024-02-26T00:06:27;100202.08;;;1.09;100.00
81299;BME280;70766;53.170;18.160;2024-02-26T00:08:55;100199.11;;;1.01;100.00
81299;BME280;70766;53.170;18.160;2024-02-26T00:11:24;100200.77;;;0.96;100.00
81299;BME280;70766;53.170;18.160;2024-02-26T00:13:52;100198.45;;;0.92;100.00
81299;BME280;70766;53.170;18.160;2024-02-26T00:16:20;100197.36;;;0.88;100.00
81299;BME280;70766;53.170;18.160;2024-02-26T00:18:48;100197.90;;;0.86;100.00
81299;BME280;70766;53.170;18.160;2024-02-26T00:21:17;100200.38;;;0.86;100.00
81299;BME280;70766;53.170;18.160;2024-02-26T00:23:46;100196.86;;;0.87;100.00
81299;BME280;70766;53.170;18.160;2024-02-26T00:26:14;100202.94;;;0.86;100.00
81299;BME280;70766;53.170;18.160;2024-02-26T00:28:43;100200.67;;;0.89;100.00
81299;BME280;70766;53.170;18.160;2024-02-26T00:31:11;100200.79;;;0.91;100.00
81299;BME280;70766;53.170;18.160;2024-02-26T00:33:39;100203.54;;;0.87;100.00
81299;BME280;70766;53.170;18.160;2024-02-26T00:36:08;100199.44;;;0.82;100.00
81299;BME280;70766;53.170;18.160;2024-02-26T00:38:36;100190.77;;;0.76;100.00
81299;BME280;70766;53.170;18.160;2024-02-26T00:41:04;100187.65;;;0.70;100.00
81299;BME280;70766;53.170;18.160;2024-02-26T00:43:32;100185.88;;;0.62;100.00
81299;BME280;70766;53.170;18.160;2024-02-26T00:46:01;100183.95;;;0.53;100.00
81299;BME280;70766;53.170;18.160;2024-02-26T00:48:30;100183.83;;;0.46;100.00
81299;BME280;70766;53.170;18.160;2024-02-26T00:50:58;100183.95;;;0.42;100.00
81299;BME280;70766;53.170;18.160;2024-02-26T00:53:26;100182.52;;;0.40;100.00
81299;BME280;70766;53.170;18.160;2024-02-26T00:55:57;100187.61;;;0.37;100.00
81299;BME280;70766;53.170;18.160;2024-02-26T00:58:29;100187.02;;;0.33;100.00
81299;BME280;70766;53.170;18.160;2024-02-26T01:00:57;100181.73;;;0.30;100.00
81299;BME280;70766;53.170;18.160;2024-02-26T01:03:25;100184.55;;;0.30;100.00
81299;BME280;70766;53.170;18.160;2024-02-26T01:05:53;100185.44;;;0.29;100.00
81299;BME280;70766;53.170;18.160;2024-02-26T01:08:26;100189.84;;;0.28;100.00
81299;BME280;70766;53.170;18.160;2024-02-26T01:10:54;100189.21;;;0.27;100.00
81299;BME280;70766;53.170;18.160;2024-02-26T01:13:22;100189.88;;;0.32;100.00
81299;BME280;70766;53.170;18.160;2024-02-26T01:15:50;100191.89;;;0.31;100.00
81299;BME280;70766;53.170;18.160;2024-02-26T01:18:18;100194.90;;;0.30;100.00
81299;BME280;70766;53.170;18.160;2024-02-26T01:20:47;100191.75;;;0.27;100.00
81299;BME280;70766;53.170;18.160;2024-02-26T01:23:15;100192.73;;;0.24;100.00
81299;BME280;70766;53.170;18.160;2024-02-26T01:25:43;100195.77;;;0.21;100.00
81299;BME280;70766;53.170;18.160;2024-02-26T01:28:11;100196.95;;;0.18;100.00
81299;BME280;70766;53.170;18.160;2024-02-26T01:30:40;100196.46;;;0.19;100.00
81299;BME280;70766;53.170;18.160;2024-02-26T01:33:08;100198.13;;;0.23;100.00
81299;BME280;70766;53.170;18.160;2024-02-26T01:35:36;100196.53;;;0.29;100.00
81299;BME280;70766;53.170;18.160;2024-02-26T01:38:04;100191.50;;;0.38;100.00
81299;BME280;70766;53.170;18.160;2024-02-26T01:40:33;100189.89;;;0.47;100.00
81299;BME280;70766;53.170;18.160;2024-02-26T01:43:02;100193.39;;;0.55;100.00
81299;BME280;70766;53.170;18.160;2024-02-26T01:45:30;100195.70;;;0.62;100.00
81299;BME280;70766;53.170;18.160;2024-02-26T01:47:58;100200.04;;;0.71;100.00
81299;BME280;70766;53.170;18.160;2024-02-26T01:50:27;100199.46;;;0.79;100.00
81299;BME280;70766;53.170;18.160;2024-02-26T01:52:56;100204.89;;;0.86;100.00
81299;BME280;70766;53.170;18.160;2024-02-26T01:55:26;100201.90;;;0.94;100.00
81299;BME280;70766;53.170;18.160;2024-02-26T01:57:54;100205.30;;;1.02;100.00
81299;BME280;70766;53.170;18.160;2024-02-26T02:00:24;100200.96;;;1.09;100.00
81299;BME280;70766;53.170;18.160;2024-02-26T02:02:52;100201.95;;;1.14;100.00
81299;BME280;70766;53.170;18.160;2024-02-26T02:05:23;100204.38;;;1.19;100.00
81299;BME280;70766;53.170;18.160;2024-02-26T02:07:53;100205.14;;;1.23;100.00
81299;BME280;70766;53.170;18.160;2024-02-26T02:10:21;100207.59;;;1.26;100.00
81299;BME280;70766;53.170;18.160;2024-02-26T02:12:53;100206.48;;;1.25;100.00
81299;BME280;70766;53.170;18.160;2024-02-26T02:15:22;100207.51;;;1.24;100.00
81299;BME280;70766;53.170;18.160;2024-02-26T02:17:50;100208.27;;;1.21;100.00
81299;BME280;70766;53.170;18.160;2024-02-26T02:20:18;100200.28;;;1.15;100.00
81299;BME280;70766;53.170;18.160;2024-02-26T02:22:47;100200.66;;;1.09;100.00
81299;BME280;70766;53.170;18.160;2024-02-26T02:25:15;100205.59;;;1.02;100.00
81299;BME280;70766;53.170;18.160;2024-02-26T02:27:43;100204.15;;;0.94;100.00
81299;BME280;70766;53.170;18.160;2024-02-26T02:30:12;100202.72;;;0.87;100.00
81299;BME280;70766;53.170;18.160;2024-02-26T02:32:40;100197.51;;;0.80;100.00
81299;BME280;70766;53.170;18.160;2024-02-26T02:35:12;100192.13;;;0.75;100.00
81299;BME280;70766;53.170;18.160;2024-02-26T02:37:40;100191.95;;;0.67;100.00
81299;BME280;70766;53.170;18.160;2024-02-26T02:40:09;100194.54;;;0.60;100.00
81299;BME280;70766;53.170;18.160;2024-02-26T02:42:37;100198.70;;;0.53;100.00
81299;BME280;70766;53.170;18.160;2024-02-26T02:45:05;100204.89;;;0.45;100.00
81299;BME280;70766;53.170;18.160;2024-02-26T02:47:36;100203.17;;;0.39;100.00
81299;BME280;70766;53.170;18.160;2024-02-26T02:50:06;100203.80;;;0.32;100.00
81299;BME280;70766;53.170;18.160;2024-02-26T02:52:34;100200.45;;;0.28;100.00
81299;BME280;70766;53.170;18.160;2024-02-26T02:55:02;100205.41;;;0.27;100.00
81299;BME280;70766;53.170;18.160;2024-02-26T02:57:31;100205.11;;;0.26;100.00
81299;BME280;70766;53.170;18.160;2024-02-26T03:00:00;100207.27;;;0.31;100.00
81299;BME280;70766;53.170;18.160;2024-02-26T03:02:28;100207.40;;;0.39;100.00
81299;BME280;70766;53.170;18.160;2024-02-26T03:04:57;100214.00;;;0.52;100.00
81299;BME280;70766;53.170;18.160;2024-02-26T03:07:26;100211.73;;;0.59;100.00
81299;BME280;70766;53.170;18.160;2024-02-26T03:09:54;100213.83;;;0.50;100.00
81299;BME280;70766;53.170;18.160;2024-02-26T03:12:22;100213.73;;;0.39;100.00
81299;BME280;70766;53.170;18.160;2024-02-26T03:14:51;100212.52;;;0.31;100.00
81299;BME280;70766;53.170;18.160;2024-02-26T03:17:20;100213.13;;;0.24;100.00
81299;BME280;70766;53.170;18.160;2024-02-26T03:19:48;100212.06;;;0.21;100.00
81299;BME280;70766;53.170;18.160;2024-02-26T03:22:21;100211.18;;;0.20;100.00
81299;BME280;70766;53.170;18.160;2024-02-26T03:24:49;100209.43;;;0.21;100.00
81299;BME280;70766;53.170;18.160;2024-02-26T03:27:17;100210.02;;;0.22;100.00
81299;BME280;70766;53.170;18.160;2024-02-26T03:29:45;100209.63;;;0.21;100.00
81299;BME280;70766;53.170;18.160;2024-02-26T03:32:14;100207.04;;;0.24;100.00
81299;BME280;70766;53.170;18.160;2024-02-26T03:34:42;100205.45;;;0.24;100.00
81299;BME280;70766;53.170;18.160;2024-02-26T03:37:10;100207.60;;;0.27;100.00
81299;BME280;70766;53.170;18.160;2024-02-26T03:39:38;100211.08;;;0.28;100.00
81299;BME280;70766;53.170;18.160;2024-02-26T03:42:06;100212.81;;;0.32;100.00
81299;BME280;70766;53.170;18.160;2024-02-26T03:44:35;100214.55;;;0.38;100.00
81299;BME280;70766;53.170;18.160;2024-02-26T03:47:03;100213.13;;;0.41;100.00
81299;BME280;70766;53.170;18.160;2024-02-26T03:49:31;100211.79;;;0.45;100.00
81299;BME280;70766;53.170;18.160;2024-02-26T03:51:59;100216.54;;;0.50;100.00
81299;BME280;70766;53.170;18.160;2024-02-26T03:54:27;100218.39;;;0.51;100.00
81299;BME280;70766;53.170;18.160;2024-02-26T03:56:55;100222.63;;;0.55;100.00
81299;BME280;70766;53.170;18.160;2024-02-26T03:59:23;100222.93;;;0.58;100.00
81299;BME280;70766;53.170;18.160;2024-02-26T04:01:53;100222.30;;;0.61;100.00
81299;BME280;70766;53.170;18.160;2024-02-26T04:04:21;100224.92;;;0.64;100.00
81299;BME280;70766;53.170;18.160;2024-02-26T04:06:49;100220.80;;;0.66;100.00
81299;BME280;70766;53.170;18.160;2024-02-26T04:09:17;100218.46;;;0.67;100.00
81299;BME280;70766;53.170;18.160;2024-02-26T04:11:46;100222.67;;;0.64;100.00
81299;BME280;70766;53.170;18.160;2024-02-26T04:14:14;100225.45;;;0.61;100.00
81299;BME280;70766;53.170;18.160;2024-02-26T04:16:42;100226.66;;;0.60;100.00
81299;BME280;70766;53.170;18.160;2024-02-26T04:19:10;100219.73;;;0.60;100.00
81299;BME280;70766;53.170;18.160;2024-02-26T04:21:41;100217.33;;;0.63;100.00
81299;BME280;70766;53.170;18.160;2024-02-26T04:24:09;100212.84;;;0.64;100.00
81299;BME280;70766;53.170;18.160;2024-02-26T04:26:37;100210.17;;;0.62;100.00
81299;BME280;70766;53.170;18.160;2024-02-26T04:29:05;100212.70;;;0.63;100.00
81299;BME280;70766;53.170;18.160;2024-02-26T04:31:33;100214.52;;;0.63;100.00
81299;BME280;70766;53.170;18.160;2024-02-26T04:34:01;100221.61;;;0.59;100.00
81299;BME280;70766;53.170;18.160;2024-02-26T04:36:30;100225.48;;;0.56;100.00
81299;BME280;70766;53.170;18.160;2024-02-26T04:38:58;100224.44;;;0.53;100.00
81299;BME280;70766;53.170;18.160;2024-02-26T04:41:26;100221.10;;;0.50;100.00
81299;BME280;70766;53.170;18.160;2024-02-26T04:43:55;100221.73;;;0.47;100.00
81299;BME280;70766;53.170;18.160;2024-02-26T04:46:23;100222.35;;;0.45;100.00
81299;BME280;70766;53.170;18.160;2024-02-26T04:48:51;100221.30;;;0.42;100.00
81299;BME280;70766;53.170;18.160;2024-02-26T04:51:22;100221.23;;;0.38;100.00
81299;BME280;70766;53.170;18.160;2024-02-26T04:53:51;100222.23;;;0.34;100.00
81299;BME280;70766;53.170;18.160;2024-02-26T04:56:21;100223.45;;;0.28;100.00
81299;BME280;70766;53.170;18.160;2024-02-26T04:58:50;100223.14;;;0.23;100.00
81299;BME280;70766;53.170;18.160;2024-02-26T05:01:18;100227.39;;;0.18;100.00
81299;BME280;70766;53.170;18.160;2024-02-26T05:03:46;100225.48;;;0.13;100.00
81299;BME280;70766;53.170;18.160;2024-02-26T05:06:15;100230.20;;;0.09;100.00
81299;BME280;70766;53.170;18.160;2024-02-26T05:08:43;100232.90;;;0.05;100.00
81299;BME280;70766;53.170;18.160;2024-02-26T05:11:12;100240.30;;;0.02;100.00
81299;BME280;70766;53.170;18.160;2024-02-26T05:13:41;100241.44;;;-0.02;100.00
81299;BME280;70766;53.170;18.160;2024-02-26T05:16:09;100247.12;;;-0.06;100.00
81299;BME280;70766;53.170;18.160;2024-02-26T05:18:37;100251.38;;;-0.11;100.00
81299;BME280;70766;53.170;18.160;2024-02-26T05:21:05;100257.53;;;-0.16;100.00
81299;BME280;70766;53.170;18.160;2024-02-26T05:23:33;100259.96;;;-0.19;100.00
81299;BME280;70766;53.170;18.160;2024-02-26T05:26:01;100263.27;;;-0.20;100.00
81299;BME280;70766;53.170;18.160;2024-02-26T05:28:29;100266.50;;;-0.20;100.00
81299;BME280;70766;53.170;18.160;2024-02-26T05:30:58;100266.27;;;-0.22;100.00
81299;BME280;70766;53.170;18.160;2024-02-26T05:33:27;100270.68;;;-0.23;100.00
81299;BME280;70766;53.170;18.160;2024-02-26T05:35:55;100267.98;;;-0.25;100.00
81299;BME280;70766;53.170;18.160;2024-02-26T05:38:23;100271.27;;;-0.27;100.00
81299;BME280;70766;53.170;18.160;2024-02-26T05:40:51;100270.51;;;-0.31;100.00
81299;BME280;70766;53.170;18.160;2024-02-26T05:43:20;100275.30;;;-0.36;100.00
81299;BME280;70766;53.170;18.160;2024-02-26T05:45:48;100280.77;;;-0.40;100.00
81299;BME280;70766;53.170;18.160;2024-02-26T05:48:16;100280.93;;;-0.43;100.00
81299;BME280;70766;53.170;18.160;2024-02-26T05:50:46;100277.50;;;-0.45;100.00
81299;BME280;70766;53.170;18.160;2024-02-26T05:53:14;100282.91;;;-0.47;100.00
81299;BME280;70766;53.170;18.160;2024-02-26T05:55:42;100287.91;;;-0.49;100.00
81299;BME280;70766;53.170;18.160;2024-02-26T05:58:10;100296.94;;;-0.51;100.00
81299;BME280;70766;53.170;18.160;2024-02-26T06:00:38;100299.28;;;-0.53;100.00
81299;BME280;70766;53.170;18.160;2024-02-26T06:03:07;100299.05;;;-0.54;100.00
81299;BME280;70766;53.170;18.160;2024-02-26T06:05:35;100300.05;;;-0.52;100.00
81299;BME280;70766;53.170;18.160;2024-02-26T06:08:03;100299.09;;;-0.50;100.00
81299;BME280;70766;53.170;18.160;2024-02-26T06:10:32;100299.38;;;-0.46;100.00
81299;BME280;70766;53.170;18.160;2024-02-26T06:13:00;100299.11;;;-0.42;100.00
81299;BME280;70766;53.170;18.160;2024-02-26T06:15:28;100297.58;;;-0.36;100.00
81299;BME280;70766;53.170;18.160;2024-02-26T06:17:57;100299.77;;;-0.29;100.00
81299;BME280;70766;53.170;18.160;2024-02-26T06:20:25;100300.36;;;-0.23;100.00
81299;BME280;70766;53.170;18.160;2024-02-26T06:22:53;100310.38;;;-0.18;100.00
81299;BME280;70766;53.170;18.160;2024-02-26T06:25:21;100309.77;;;-0.14;100.00
81299;BME280;70766;53.170;18.160;2024-02-26T06:27:50;100313.66;;;-0.07;100.00
81299;BME280;70766;53.170;18.160;2024-02-26T06:30:18;100313.19;;;-0.01;100.00
81299;BME280;70766;53.170;18.160;2024-02-26T06:32:46;100309.36;;;0.01;100.00
81299;BME280;70766;53.170;18.160;2024-02-26T06:35:14;100307.34;;;0.03;100.00
81299;BME280;70766;53.170;18.160;2024-02-26T06:37:42;100320.17;;;0.11;100.00
81299;BME280;70766;53.170;18.160;2024-02-26T06:40:10;100322.80;;;0.19;100.00
81299;BME280;70766;53.170;18.160;2024-02-26T06:42:39;100324.89;;;0.29;100.00
81299;BME280;70766;53.170;18.160;2024-02-26T06:45:07;100326.10;;;0.40;100.00
81299;BME280;70766;53.170;18.160;2024-02-26T06:47:36;100324.52;;;0.44;100.00
81299;BME280;70766;53.170;18.160;2024-02-26T06:50:04;100325.13;;;0.45;100.00
81299;BME280;70766;53.170;18.160;2024-02-26T06:52:32;100322.22;;;0.49;100.00
81299;BME280;70766;53.170;18.160;2024-02-26T06:55:00;100327.19;;;0.50;100.00
81299;BME280;70766;53.170;18.160;2024-02-26T06:57:29;100327.86;;;0.51;100.00
81299;BME280;70766;53.170;18.160;2024-02-26T06:59:57;100327.88;;;0.50;100.00
81299;BME280;70766;53.170;18.160;2024-02-26T07:02:27;100316.59;;;0.60;100.00
81299;BME280;70766;53.170;18.160;2024-02-26T07:04:56;100316.66;;;0.67;100.00
81299;BME280;70766;53.170;18.160;2024-02-26T07:07:26;100317.61;;;0.63;100.00
81299;BME280;70766;53.170;18.160;2024-02-26T07:09:55;100326.70;;;0.59;100.00
81299;BME280;70766;53.170;18.160;2024-02-26T07:12:23;100326.34;;;0.61;100.00
81299;BME280;70766;53.170;18.160;2024-02-26T07:14:51;100331.79;;;0.61;100.00
81299;BME280;70766;53.170;18.160;2024-02-26T07:17:20;100329.21;;;0.68;100.00
81299;BME280;70766;53.170;18.160;2024-02-26T07:19:48;100330.14;;;0.80;100.00
81299;BME280;70766;53.170;18.160;2024-02-26T07:22:17;100332.81;;;0.95;100.00
81299;BME280;70766;53.170;18.160;2024-02-26T07:24:45;100337.57;;;1.10;100.00
81299;BME280;70766;53.170;18.160;2024-02-26T07:27:13;100336.42;;;1.24;100.00
81299;BME280;70766;53.170;18.160;2024-02-26T07:29:41;100339.54;;;1.48;100.00
81299;BME280;70766;53.170;18.160;2024-02-26T07:32:10;100338.91;;;1.62;100.00
81299;BME280;70766;53.170;18.160;2024-02-26T07:34:38;100335.55;;;1.71;100.00
81299;BME280;70766;53.170;18.160;2024-02-26T07:37:10;100337.77;;;1.75;100.00
81299;BME280;70766;53.170;18.160;2024-02-26T07:39:39;100342.98;;;1.82;100.00
81299;BME280;70766;53.170;18.160;2024-02-26T07:42:07;100343.72;;;1.95;100.00
81299;BME280;70766;53.170;18.160;2024-02-26T07:44:36;100349.73;;;2.15;100.00
81299;BME280;70766;53.170;18.160;2024-02-26T07:47:04;100355.58;;;2.27;100.00
81299;BME280;70766;53.170;18.160;2024-02-26T07:49:32;100355.49;;;2.32;100.00
81299;BME280;70766;53.170;18.160;2024-02-26T07:52:06;100359.61;;;2.33;100.00
81299;BME280;70766;53.170;18.160;2024-02-26T07:54:34;100358.55;;;2.40;100.00
81299;BME280;70766;53.170;18.160;2024-02-26T07:57:02;100364.64;;;2.52;100.00
81299;BME280;70766;53.170;18.160;2024-02-26T07:59:33;100360.79;;;2.68;100.00
81299;BME280;70766;53.170;18.160;2024-02-26T08:02:01;100361.10;;;2.83;100.00
81299;BME280;70766;53.170;18.160;2024-02-26T08:04:31;100361.77;;;2.83;100.00
81299;BME280;70766;53.170;18.160;2024-02-26T08:06:59;100364.86;;;2.84;100.00
81299;BME280;70766;53.170;18.160;2024-02-26T08:09:27;100362.38;;;2.74;100.00
81299;BME280;70766;53.170;18.160;2024-02-26T08:11:56;100367.56;;;2.63;100.00
81299;BME280;70766;53.170;18.160;2024-02-26T08:14:24;100367.36;;;2.63;100.00
81299;BME280;70766;53.170;18.160;2024-02-26T08:16:52;100370.14;;;2.78;100.00
81299;BME280;70766;53.170;18.160;2024-02-26T08:19:20;100363.67;;;3.00;100.00
81299;BME280;70766;53.170;18.160;2024-02-26T08:21:48;100365.58;;;3.22;100.00
81299;BME280;70766;53.170;18.160;2024-02-26T08:24:17;100368.07;;;3.37;100.00
81299;BME280;70766;53.170;18.160;2024-02-26T08:26:48;100368.20;;;3.39;100.00
81299;BME280;70766;53.170;18.160;2024-02-26T08:29:28;100366.96;;;3.63;100.00
81299;BME280;70766;53.170;18.160;2024-02-26T08:31:57;100365.34;;;3.81;100.00
81299;BME280;70766;53.170;18.160;2024-02-26T08:34:25;100367.39;;;3.89;100.00
81299;BME280;70766;53.170;18.160;2024-02-26T08:36:54;100364.94;;;3.97;100.00
81299;BME280;70766;53.170;18.160;2024-02-26T08:39:22;100363.34;;;4.12;100.00
81299;BME280;70766;53.170;18.160;2024-02-26T08:41:50;100361.68;;;4.30;100.00
81299;BME280;70766;53.170;18.160;2024-02-26T08:44:18;100365.64;;;4.34;100.00
81299;BME280;70766;53.170;18.160;2024-02-26T08:46:46;100365.98;;;4.27;100.00
81299;BME280;70766;53.170;18.160;2024-02-26T08:49:14;100367.21;;;4.31;100.00
81299;BME280;70766;53.170;18.160;2024-02-26T08:51:44;100371.77;;;4.40;100.00
81299;BME280;70766;53.170;18.160;2024-02-26T08:54:13;100373.13;;;4.49;100.00
81299;BME280;70766;53.170;18.160;2024-02-26T08:56:41;100371.65;;;4.47;100.00
81299;BME280;70766;53.170;18.160;2024-02-26T08:59:09;100374.73;;;4.50;100.00
81299;BME280;70766;53.170;18.160;2024-02-26T09:01:37;100379.52;;;4.68;100.00
81299;BME280;70766;53.170;18.160;2024-02-26T09:04:06;100376.52;;;4.88;100.00
81299;BME280;70766;53.170;18.160;2024-02-26T09:06:34;100378.69;;;4.98;100.00
81299;BME280;70766;53.170;18.160;2024-02-26T09:09:02;100382.71;;;5.17;100.00
81299;BME280;70766;53.170;18.160;2024-02-26T09:11:31;100382.08;;;5.40;100.00
81299;BME280;70766;53.170;18.160;2024-02-26T09:13:59;100383.42;;;5.70;100.00
81299;BME280;70766;53.170;18.160;2024-02-26T09:16:27;100384.92;;;5.95;100.00
81299;BME280;70766;53.170;18.160;2024-02-26T09:18:56;100385.42;;;6.07;100.00
81299;BME280;70766;53.170;18.160;2024-02-26T09:21:25;100392.55;;;6.23;100.00
81299;BME280;70766;53.170;18.160;2024-02-26T09:23:54;100393.49;;;6.46;100.00
81299;BME280;70766;53.170;18.160;2024-02-26T09:26:22;100392.56;;;6.58;100.00
81299;BME280;70766;53.170;18.160;2024-02-26T09:28:50;100394.45;;;6.64;100.00
81299;BME280;70766;53.170;18.160;2024-02-26T09:31:18;100396.28;;;6.48;100.00
81299;BME280;70766;53.170;18.160;2024-02-26T09:33:46;100398.13;;;6.49;100.00
81299;BME280;70766;53.170;18.160;2024-02-26T09:36:15;100395.14;;;6.63;100.00
81299;BME280;70766;53.170;18.160;2024-02-26T09:38:43;100392.77;;;6.61;100.00
81299;BME280;70766;53.170;18.160;2024-02-26T09:41:23;100391.22;;;6.76;100.00
81299;BME280;70766;53.170;18.160;2024-02-26T09:43:56;100385.63;;;6.95;100.00
81299;BME280;70766;53.170;18.160;2024-02-26T09:46:25;100388.33;;;7.09;100.00
81299;BME280;70766;53.170;18.160;2024-02-26T09:48:54;100385.63;;;7.18;100.00
81299;BME280;70766;53.170;18.160;2024-02-26T09:51:24;100389.83;;;7.51;100.00
81299;BME280;70766;53.170;18.160;2024-02-26T09:53:54;100389.41;;;8.09;100.00
81299;BME280;70766;53.170;18.160;2024-02-26T09:56:24;100393.92;;;8.64;100.00
81299;BME280;70766;53.170;18.160;2024-02-26T09:58:54;100397.27;;;9.04;100.00
81299;BME280;70766;53.170;18.160;2024-02-26T10:01:24;100397.34;;;9.38;100.00
81299;BME280;70766;53.170;18.160;2024-02-26T10:03:57;100401.76;;;9.28;97.14
81299;BME280;70766;53.170;18.160;2024-02-26T10:06:26;100395.10;;;9.05;95.16
81299;BME280;70766;53.170;18.160;2024-02-26T10:08:56;100395.16;;;8.96;94.75
81299;BME280;70766;53.170;18.160;2024-02-26T10:11:27;100399.27;;;8.90;96.38
81299;BME280;70766;53.170;18.160;2024-02-26T10:13:59;100398.03;;;8.97;97.57
81299;BME280;70766;53.170;18.160;2024-02-26T10:16:28;100393.58;;;9.12;98.12
81299;BME280;70766;53.170;18.160;2024-02-26T10:18:56;100393.54;;;9.32;98.56
81299;BME280;70766;53.170;18.160;2024-02-26T10:21:27;100382.43;;;9.71;100.00
81299;BME280;70766;53.170;18.160;2024-02-26T10:23:56;100385.11;;;10.07;97.87
81299;BME280;70766;53.170;18.160;2024-02-26T10:26:24;100387.13;;;10.34;98.63
81299;BME280;70766;53.170;18.160;2024-02-26T10:28:52;100383.01;;;10.81;100.00
81299;BME280;70766;53.170;18.160;2024-02-26T10:31:23;100380.33;;;11.29;98.31
81299;BME280;70766;53.170;18.160;2024-02-26T10:33:55;100382.27;;;10.98;91.05
81299;BME280;70766;53.170;18.160;2024-02-26T10:36:27;100382.55;;;10.56;89.96
81299;BME280;70766;53.170;18.160;2024-02-26T10:39:12;100380.39;;;10.60;91.77
81299;BME280;70766;53.170;18.160;2024-02-26T10:41:42;100373.70;;;10.91;89.98
81299;BME280;70766;53.170;18.160;2024-02-26T10:44:11;100371.35;;;11.03;91.96
81299;BME280;70766;53.170;18.160;2024-02-26T10:46:47;100368.34;;;11.20;90.98
81299;BME280;70766;53.170;18.160;2024-02-26T10:49:19;100366.02;;;11.49;86.95
81299;BME280;70766;53.170;18.160;2024-02-26T10:51:55;100372.23;;;11.79;86.58
81299;BME280;70766;53.170;18.160;2024-02-26T10:54:29;100373.29;;;11.63;84.40
81299;BME280;70766;53.170;18.160;2024-02-26T10:56:59;100373.90;;;11.51;84.26
81299;BME280;70766;53.170;18.160;2024-02-26T10:59:27;100373.19;;;11.42;82.39
81299;BME280;70766;53.170;18.160;2024-02-26T11:01:56;100377.30;;;11.15;84.83
81299;BME280;70766;53.170;18.160;2024-02-26T11:04:26;100380.34;;;11.03;85.84
81299;BME280;70766;53.170;18.160;2024-02-26T11:06:57;100380.14;;;10.87;85.26
81299;BME280;70766;53.170;18.160;2024-02-26T11:09:26;100377.54;;;10.97;85.11
81299;BME280;70766;53.170;18.160;2024-02-26T11:11:56;100376.91;;;10.74;86.48
81299;BME280;70766;53.170;18.160;2024-02-26T11:14:26;100371.63;;;10.85;86.20
81299;BME280;70766;53.170;18.160;2024-02-26T11:16:55;100369.74;;;11.03;85.31
81299;BME280;70766;53.170;18.160;2024-02-26T11:19:24;100362.03;;;11.08;85.01
81299;BME280;70766;53.170;18.160;2024-02-26T11:21:55;100355.95;;;11.32;85.62
81299;BME280;70766;53.170;18.160;2024-02-26T11:24:27;100358.69;;;11.59;85.76
81299;BME280;70766;53.170;18.160;2024-02-26T11:26:59;100360.27;;;11.85;83.41
81299;BME280;70766;53.170;18.160;2024-02-26T11:29:37;100360.80;;;11.89;84.17
81299;BME280;70766;53.170;18.160;2024-02-26T11:32:06;100356.20;;;12.08;85.23
81299;BME280;70766;53.170;18.160;2024-02-26T20:51:31;100585.92;;;7.45;100.00
81299;BME280;70766;53.170;18.160;2024-02-26T20:53:59;100588.60;;;7.42;100.00
81299;BME280;70766;53.170;18.160;2024-02-26T20:56:27;100589.48;;;7.44;100.00
81299;BME280;70766;53.170;18.160;2024-02-26T20:58:55;100588.67;;;7.40;100.00
81299;BME280;70766;53.170;18.160;2024-02-26T21:01:24;100588.40;;;7.41;100.00
81299;BME280;70766;53.170;18.160;2024-02-26T21:03:53;100590.25;;;7.38;100.00
81299;BME280;70766;53.170;18.160;2024-02-26T21:06:22;100587.09;;;7.36;100.00
81299;BME280;70766;53.170;18.160;2024-02-26T21:08:50;100582.98;;;7.35;100.00
81299;BME280;70766;53.170;18.160;2024-02-26T21:11:19;100586.02;;;7.31;100.00
81299;BME280;70766;53.170;18.160;2024-02-26T21:13:49;100583.11;;;7.30;100.00
81299;BME280;70766;53.170;18.160;2024-02-26T21:16:17;100580.86;;;7.27;100.00
81299;BME280;70766;53.170;18.160;2024-02-26T21:18:45;100574.30;;;7.25;100.00
81299;BME280;70766;53.170;18.160;2024-02-26T21:21:13;100573.60;;;7.22;100.00
81299;BME280;70766;53.170;18.160;2024-02-26T21:23:41;100574.67;;;7.18;100.00
81299;BME280;70766;53.170;18.160;2024-02-26T21:26:14;100575.00;;;7.15;100.00
81299;BME280;70766;53.170;18.160;2024-02-26T21:28:42;100582.80;;;7.16;100.00
81299;BME280;70766;53.170;18.160;2024-02-26T21:31:11;100583.99;;;7.12;100.00
81299;BME280;70766;53.170;18.160;2024-02-26T21:33:39;100585.97;;;7.09;100.00
81299;BME280;70766;53.170;18.160;2024-02-26T21:36:08;100584.37;;;7.06;100.00
81299;BME280;70766;53.170;18.160;2024-02-26T21:38:36;100582.90;;;7.03;100.00
81299;BME280;70766;53.170;18.160;2024-02-26T21:41:17;100580.55;;;7.02;100.00
81299;BME280;70766;53.170;18.160;2024-02-26T21:43:47;100576.86;;;7.02;100.00
81299;BME280;70766;53.170;18.160;2024-02-26T21:46:22;100580.64;;;6.99;100.00
81299;BME280;70766;53.170;18.160;2024-02-26T21:48:52;100579.73;;;7.00;100.00
81299;BME280;70766;53.170;18.160;2024-02-26T21:51:20;100585.12;;;6.99;100.00
81299;BME280;70766;53.170;18.160;2024-02-26T21:53:48;100586.27;;;6.98;100.00
81299;BME280;70766;53.170;18.160;2024-02-26T21:56:17;100593.12;;;6.96;100.00
81299;BME280;70766;53.170;18.160;2024-02-26T21:58:46;100595.38;;;6.94;100.00
81299;BME280;70766;53.170;18.160;2024-02-26T22:01:14;100598.82;;;6.95;100.00
81299;BME280;70766;53.170;18.160;2024-02-26T22:03:42;100599.20;;;6.92;100.00